ETD63 OMAA-EGLL
Flight info
| Callsign | ETD63 |
|---|---|
| Flight time | N/A |
| Altitude | 34000 |
| Route | DAXIB Q563 UKUVO G462 TUMAK L602 GADSI M860 KODAV/N0483F360 M860 NINVA UM860 CRM UL746 GOKPA UM10 TIVUG UL852 NEGEM DCT DEGET/N0469F380 DCT BEGLA DCT DITIS DCT OKG DCT VELIS DCT SWALM DCT TORNU DCT BREDA DCT ABNED L980 LOGAN |
| Aircraft | A346/H-SDE2E3FGHIJ3J4J5M1RWXY/LB1D1 |
Departure
| Time | N/A |
|---|---|
| Airport | Zayed International Airport (OMAA) |
Arrival
| Time | 2026-05-06 08:39 |
|---|---|
| Airport | London Heathrow Airport (EGLL) |
| Time | Latitude | Longitude | Altitude | Speed | Heading |
|---|---|---|---|---|---|
| 2026-05-06 06:26 | 46.75218 | 20.51576 | 37997 ft | 451 kts | 296° |
| 2026-05-06 06:27 | 46.77999 | 20.43354 | 37996 ft | 451 kts | 296° |
| 2026-05-06 06:27 | 46.80751 | 20.35191 | 37992 ft | 451 kts | 296° |
| 2026-05-06 06:28 | 46.83518 | 20.26958 | 37987 ft | 451 kts | 296° |
| 2026-05-06 06:28 | 46.86282 | 20.18709 | 37987 ft | 451 kts | 296° |
| 2026-05-06 06:29 | 46.89034 | 20.10467 | 37986 ft | 451 kts | 296° |
| 2026-05-06 06:29 | 46.91782 | 20.02215 | 37986 ft | 451 kts | 296° |
| 2026-05-06 06:30 | 46.94531 | 19.93934 | 37981 ft | 450 kts | 295° |
| 2026-05-06 06:30 | 46.97264 | 19.85672 | 37977 ft | 450 kts | 295° |
| 2026-05-06 06:31 | 46.99992 | 19.77398 | 37977 ft | 450 kts | 295° |
| 2026-05-06 06:31 | 47.02720 | 19.69097 | 37979 ft | 451 kts | 295° |
| 2026-05-06 06:32 | 47.05419 | 19.60857 | 37977 ft | 451 kts | 295° |
| 2026-05-06 06:32 | 47.08135 | 19.52540 | 37977 ft | 451 kts | 295° |
| 2026-05-06 06:33 | 47.10843 | 19.44223 | 37978 ft | 451 kts | 295° |
| 2026-05-06 06:33 | 47.13545 | 19.35893 | 37974 ft | 451 kts | 295° |
| 2026-05-06 06:34 | 47.16243 | 19.27552 | 37959 ft | 451 kts | 295° |
| 2026-05-06 06:34 | 47.18933 | 19.19208 | 37956 ft | 451 kts | 295° |
| 2026-05-06 06:35 | 47.21614 | 19.10862 | 37965 ft | 451 kts | 294° |
| 2026-05-06 06:35 | 47.24292 | 19.02499 | 37957 ft | 451 kts | 294° |
| 2026-05-06 06:36 | 47.26967 | 18.94120 | 37953 ft | 451 kts | 294° |
| 2026-05-06 06:36 | 47.29613 | 18.85804 | 37960 ft | 451 kts | 294° |
| 2026-05-06 06:37 | 47.32272 | 18.77420 | 37949 ft | 451 kts | 294° |
| 2026-05-06 06:37 | 47.34924 | 18.69030 | 37951 ft | 451 kts | 294° |
| 2026-05-06 06:38 | 47.37571 | 18.60626 | 37948 ft | 451 kts | 294° |
| 2026-05-06 06:38 | 47.40211 | 18.52219 | 37945 ft | 451 kts | 294° |
| 2026-05-06 06:39 | 47.42845 | 18.43801 | 37936 ft | 451 kts | 294° |
| 2026-05-06 06:39 | 47.45468 | 18.35390 | 37923 ft | 451 kts | 293° |
| 2026-05-06 06:40 | 47.48088 | 18.26960 | 37918 ft | 451 kts | 293° |
| 2026-05-06 06:40 | 47.50709 | 18.18499 | 37913 ft | 451 kts | 293° |
| 2026-05-06 06:41 | 47.53299 | 18.10108 | 37912 ft | 451 kts | 293° |
| 2026-05-06 06:41 | 47.55904 | 18.01644 | 37907 ft | 451 kts | 293° |
| 2026-05-06 06:42 | 47.58507 | 17.93156 | 37904 ft | 451 kts | 293° |
| 2026-05-06 06:42 | 47.61096 | 17.84682 | 37901 ft | 451 kts | 292° |
| 2026-05-06 06:43 | 47.63680 | 17.76196 | 37903 ft | 451 kts | 292° |
| 2026-05-06 06:43 | 47.66255 | 17.67713 | 37904 ft | 451 kts | 292° |
| 2026-05-06 06:44 | 47.68826 | 17.59210 | 37902 ft | 451 kts | 292° |
| 2026-05-06 06:44 | 47.71389 | 17.50708 | 37903 ft | 451 kts | 292° |
| 2026-05-06 06:45 | 47.73949 | 17.42183 | 37904 ft | 451 kts | 292° |
| 2026-05-06 06:45 | 47.76509 | 17.33625 | 37909 ft | 451 kts | 292° |
| 2026-05-06 06:46 | 47.79059 | 17.25073 | 37912 ft | 452 kts | 292° |
| 2026-05-06 06:46 | 47.81740 | 17.16671 | 37911 ft | 453 kts | 296° |
| 2026-05-06 06:47 | 47.84995 | 17.08618 | 37907 ft | 454 kts | 302° |
| 2026-05-06 06:47 | 47.88816 | 17.01052 | 37903 ft | 456 kts | 307° |
| 2026-05-06 06:48 | 47.92844 | 16.93750 | 37903 ft | 456 kts | 307° |
| 2026-05-06 06:48 | 47.96889 | 16.86420 | 37903 ft | 456 kts | 307° |
| 2026-05-06 06:49 | 48.00927 | 16.79070 | 37902 ft | 457 kts | 307° |
| 2026-05-06 06:49 | 48.04957 | 16.71708 | 37904 ft | 458 kts | 307° |
| 2026-05-06 06:50 | 48.08971 | 16.64349 | 37904 ft | 459 kts | 307° |
| 2026-05-06 06:50 | 48.13006 | 16.56929 | 37904 ft | 459 kts | 307° |
| 2026-05-06 06:51 | 48.17036 | 16.49501 | 37904 ft | 459 kts | 307° |
| 2026-05-06 06:51 | 48.21064 | 16.42055 | 37903 ft | 459 kts | 307° |
| 2026-05-06 06:52 | 48.25091 | 16.34591 | 37897 ft | 459 kts | 307° |
| 2026-05-06 06:52 | 48.29107 | 16.27126 | 37895 ft | 459 kts | 307° |
| 2026-05-06 06:53 | 48.33122 | 16.19643 | 37897 ft | 459 kts | 307° |
| 2026-05-06 06:53 | 48.37136 | 16.12140 | 37892 ft | 459 kts | 307° |
| 2026-05-06 06:54 | 48.41142 | 16.04632 | 37892 ft | 459 kts | 307° |
| 2026-05-06 06:54 | 48.44465 | 15.98388 | 37893 ft | 459 kts | 306° |
| 2026-05-06 06:55 | 48.49135 | 15.89587 | 37893 ft | 460 kts | 306° |
| 2026-05-06 06:55 | 48.52455 | 15.83315 | 37886 ft | 460 kts | 306° |
| 2026-05-06 06:56 | 48.56447 | 15.75749 | 37881 ft | 460 kts | 306° |
| 2026-05-06 06:56 | 48.60441 | 15.68161 | 37883 ft | 460 kts | 306° |
| 2026-05-06 06:57 | 48.64424 | 15.60571 | 37865 ft | 460 kts | 306° |
| 2026-05-06 06:57 | 48.68407 | 15.52961 | 37864 ft | 461 kts | 306° |
| 2026-05-06 06:58 | 48.72358 | 15.45390 | 37878 ft | 461 kts | 306° |
| 2026-05-06 06:58 | 48.76334 | 15.37747 | 37880 ft | 461 kts | 306° |
| 2026-05-06 06:59 | 48.80308 | 15.30084 | 37881 ft | 461 kts | 306° |
| 2026-05-06 06:59 | 48.84276 | 15.22410 | 37867 ft | 462 kts | 306° |
| 2026-05-06 07:00 | 48.88241 | 15.14721 | 37863 ft | 462 kts | 306° |
| 2026-05-06 07:00 | 48.92027 | 15.06828 | 37865 ft | 461 kts | 302° |
| 2026-05-06 07:01 | 48.95668 | 14.98760 | 37868 ft | 461 kts | 302° |
| 2026-05-06 07:01 | 48.99293 | 14.90686 | 37869 ft | 461 kts | 302° |
| 2026-05-06 07:02 | 49.02913 | 14.82607 | 37869 ft | 462 kts | 302° |
| 2026-05-06 07:02 | 49.06508 | 14.74568 | 37870 ft | 462 kts | 302° |
| 2026-05-06 07:03 | 49.10125 | 14.66455 | 37858 ft | 462 kts | 302° |
| 2026-05-06 07:03 | 49.13739 | 14.58326 | 37855 ft | 462 kts | 301° |
| 2026-05-06 07:04 | 49.17351 | 14.50176 | 37848 ft | 463 kts | 301° |
| 2026-05-06 07:04 | 49.20962 | 14.42005 | 37840 ft | 463 kts | 301° |
| 2026-05-06 07:05 | 49.24568 | 14.33819 | 37838 ft | 463 kts | 301° |
| 2026-05-06 07:05 | 49.28169 | 14.25620 | 37839 ft | 463 kts | 301° |
| 2026-05-06 07:06 | 49.31766 | 14.17405 | 37843 ft | 464 kts | 301° |
| 2026-05-06 07:06 | 49.35361 | 14.09168 | 37840 ft | 464 kts | 301° |
| 2026-05-06 07:07 | 49.38949 | 14.00922 | 37839 ft | 464 kts | 301° |
| 2026-05-06 07:07 | 49.42529 | 13.92669 | 37838 ft | 465 kts | 301° |
| 2026-05-06 07:08 | 49.46094 | 13.84424 | 37838 ft | 465 kts | 301° |
| 2026-05-06 07:08 | 49.49677 | 13.76113 | 37837 ft | 465 kts | 301° |
| 2026-05-06 07:09 | 49.53253 | 13.67792 | 37838 ft | 465 kts | 301° |
| 2026-05-06 07:09 | 49.56818 | 13.59470 | 37838 ft | 465 kts | 301° |
| 2026-05-06 07:10 | 49.60384 | 13.51120 | 37841 ft | 465 kts | 301° |
| 2026-05-06 07:10 | 49.63943 | 13.42760 | 37845 ft | 465 kts | 301° |
| 2026-05-06 07:11 | 49.67492 | 13.34397 | 37845 ft | 465 kts | 301° |
| 2026-05-06 07:11 | 49.71037 | 13.26017 | 37845 ft | 465 kts | 300° |
| 2026-05-06 07:12 | 49.74577 | 13.17621 | 37844 ft | 465 kts | 300° |
| 2026-05-06 07:12 | 49.78081 | 13.09283 | 37838 ft | 465 kts | 300° |
| 2026-05-06 07:13 | 49.81630 | 13.00815 | 37834 ft | 465 kts | 300° |
| 2026-05-06 07:13 | 49.85144 | 12.92400 | 37833 ft | 465 kts | 300° |
| 2026-05-06 07:14 | 49.88635 | 12.84013 | 37830 ft | 465 kts | 300° |
| 2026-05-06 07:14 | 49.92139 | 12.75570 | 37828 ft | 465 kts | 300° |
| 2026-05-06 07:15 | 49.95645 | 12.67091 | 37821 ft | 466 kts | 300° |
| 2026-05-06 07:15 | 49.99143 | 12.58602 | 37818 ft | 466 kts | 300° |
| 2026-05-06 07:16 | 50.02628 | 12.50114 | 37820 ft | 466 kts | 300° |
| 2026-05-06 07:16 | 50.05815 | 12.41329 | 37820 ft | 465 kts | 294° |
| 2026-05-06 07:17 | 50.08375 | 12.32091 | 37817 ft | 463 kts | 288° |
| 2026-05-06 07:17 | 50.10458 | 12.22673 | 37818 ft | 462 kts | 287° |
| 2026-05-06 07:18 | 50.12512 | 12.13151 | 37822 ft | 462 kts | 286° |
| 2026-05-06 07:18 | 50.14562 | 12.03632 | 37818 ft | 462 kts | 286° |
| 2026-05-06 07:19 | 50.16606 | 11.94120 | 37818 ft | 462 kts | 286° |
| 2026-05-06 07:19 | 50.18647 | 11.84580 | 37820 ft | 462 kts | 286° |
| 2026-05-06 07:20 | 50.20679 | 11.75039 | 37818 ft | 462 kts | 286° |
| 2026-05-06 07:20 | 50.22706 | 11.65479 | 37820 ft | 463 kts | 286° |
| 2026-05-06 07:21 | 50.24724 | 11.55916 | 37812 ft | 463 kts | 286° |
| 2026-05-06 07:21 | 50.26723 | 11.46397 | 37810 ft | 463 kts | 286° |
| 2026-05-06 07:22 | 50.28730 | 11.36798 | 37809 ft | 464 kts | 286° |
| 2026-05-06 07:22 | 50.30731 | 11.27180 | 37809 ft | 464 kts | 286° |
| 2026-05-06 07:23 | 50.32725 | 11.17547 | 37806 ft | 465 kts | 286° |
| 2026-05-06 07:23 | 50.34711 | 11.07904 | 37801 ft | 465 kts | 286° |
| 2026-05-06 07:24 | 50.36688 | 10.98259 | 37798 ft | 466 kts | 286° |
| 2026-05-06 07:24 | 50.38665 | 10.88573 | 37784 ft | 466 kts | 286° |
| 2026-05-06 07:25 | 50.40624 | 10.78924 | 37782 ft | 466 kts | 285° |
| 2026-05-06 07:25 | 50.42585 | 10.69209 | 37782 ft | 466 kts | 285° |
| 2026-05-06 07:26 | 50.44537 | 10.59490 | 37782 ft | 466 kts | 285° |
| 2026-05-06 07:26 | 50.46479 | 10.49767 | 37782 ft | 466 kts | 285° |
| 2026-05-06 07:27 | 50.48433 | 10.40041 | 37782 ft | 466 kts | 285° |
| 2026-05-06 07:27 | 50.50394 | 10.30301 | 37782 ft | 467 kts | 285° |
| 2026-05-06 07:28 | 50.52343 | 10.20557 | 37780 ft | 467 kts | 285° |
| 2026-05-06 07:28 | 50.55248 | 10.05923 | 37773 ft | 467 kts | 285° |
| 2026-05-06 07:29 | 50.57171 | 9.96168 | 37773 ft | 467 kts | 285° |
| 2026-05-06 07:29 | 50.59089 | 9.86385 | 37772 ft | 467 kts | 285° |
| 2026-05-06 07:30 | 50.61000 | 9.76590 | 37773 ft | 467 kts | 285° |
| 2026-05-06 07:30 | 50.62906 | 9.66778 | 37773 ft | 467 kts | 285° |
| 2026-05-06 07:31 | 50.64801 | 9.56960 | 37772 ft | 468 kts | 285° |
| 2026-05-06 07:31 | 50.66689 | 9.47130 | 37772 ft | 468 kts | 285° |
| 2026-05-06 07:32 | 50.68568 | 9.37293 | 37773 ft | 468 kts | 285° |
| 2026-05-06 07:32 | 50.70438 | 9.27445 | 37773 ft | 468 kts | 285° |
| 2026-05-06 07:33 | 50.72214 | 9.17530 | 37772 ft | 468 kts | 282° |
| 2026-05-06 07:33 | 50.73749 | 9.07603 | 37773 ft | 468 kts | 282° |
| 2026-05-06 07:34 | 50.75270 | 8.97591 | 37772 ft | 468 kts | 282° |
| 2026-05-06 07:34 | 50.76786 | 8.87564 | 37773 ft | 468 kts | 282° |
| 2026-05-06 07:35 | 50.78296 | 8.77526 | 37768 ft | 469 kts | 282° |
| 2026-05-06 07:35 | 50.79797 | 8.67488 | 37762 ft | 469 kts | 282° |
| 2026-05-06 07:36 | 50.81292 | 8.57421 | 37762 ft | 469 kts | 282° |
| 2026-05-06 07:36 | 50.82776 | 8.47372 | 37761 ft | 469 kts | 282° |
| 2026-05-06 07:37 | 50.84254 | 8.37293 | 37766 ft | 469 kts | 282° |
| 2026-05-06 07:37 | 50.85713 | 8.27280 | 37766 ft | 469 kts | 282° |
| 2026-05-06 07:38 | 50.87173 | 8.17196 | 37762 ft | 469 kts | 281° |
| 2026-05-06 07:38 | 50.88626 | 8.07097 | 37765 ft | 469 kts | 281° |
| 2026-05-06 07:39 | 50.90064 | 7.97028 | 37765 ft | 469 kts | 281° |
| 2026-05-06 07:39 | 50.91499 | 7.86915 | 37766 ft | 470 kts | 281° |
| 2026-05-06 07:40 | 50.92928 | 7.76781 | 37769 ft | 470 kts | 281° |
| 2026-05-06 07:40 | 50.94349 | 7.66628 | 37773 ft | 470 kts | 281° |
| 2026-05-06 07:41 | 50.95760 | 7.56487 | 37778 ft | 470 kts | 281° |
| 2026-05-06 07:41 | 50.96926 | 7.48045 | 37781 ft | 470 kts | 281° |
| 2026-05-06 07:42 | 50.98320 | 7.37897 | 37790 ft | 470 kts | 281° |
| 2026-05-06 07:42 | 50.99706 | 7.27730 | 37791 ft | 470 kts | 281° |
| 2026-05-06 07:43 | 51.01079 | 7.17587 | 37791 ft | 470 kts | 281° |
| 2026-05-06 07:43 | 51.02448 | 7.07415 | 37791 ft | 470 kts | 281° |
| 2026-05-06 07:44 | 51.03806 | 6.97244 | 37791 ft | 470 kts | 281° |
| 2026-05-06 07:44 | 51.05157 | 6.87051 | 37798 ft | 470 kts | 281° |
| 2026-05-06 07:45 | 51.06496 | 6.76871 | 37800 ft | 470 kts | 281° |
| 2026-05-06 07:45 | 51.07829 | 6.66668 | 37806 ft | 470 kts | 281° |
| 2026-05-06 07:46 | 51.09153 | 6.56469 | 37809 ft | 470 kts | 280° |
| 2026-05-06 07:46 | 51.10459 | 6.46327 | 37810 ft | 470 kts | 280° |
| 2026-05-06 07:47 | 51.11765 | 6.36104 | 37814 ft | 470 kts | 280° |
| 2026-05-06 07:47 | 51.13061 | 6.25885 | 37822 ft | 470 kts | 280° |
| 2026-05-06 07:48 | 51.14348 | 6.15654 | 37818 ft | 470 kts | 280° |
| 2026-05-06 07:48 | 51.15626 | 6.05404 | 37821 ft | 470 kts | 280° |
| 2026-05-06 07:49 | 51.16983 | 5.95209 | 37819 ft | 471 kts | 283° |
| 2026-05-06 07:49 | 51.18942 | 5.85223 | 37819 ft | 472 kts | 290° |
| 2026-05-06 07:50 | 51.21581 | 5.75620 | 37824 ft | 473 kts | 296° |
| 2026-05-06 07:50 | 51.24857 | 5.66482 | 37832 ft | 474 kts | 301° |
| 2026-05-06 07:51 | 51.28358 | 5.57526 | 37837 ft | 474 kts | 301° |
| 2026-05-06 07:51 | 51.31847 | 5.48581 | 37838 ft | 474 kts | 301° |
| 2026-05-06 07:52 | 51.35333 | 5.39584 | 37839 ft | 473 kts | 301° |
| 2026-05-06 07:52 | 51.38795 | 5.30605 | 37846 ft | 473 kts | 301° |
| 2026-05-06 07:53 | 51.42250 | 5.21606 | 37846 ft | 473 kts | 301° |
| 2026-05-06 07:53 | 51.45670 | 5.12668 | 37847 ft | 473 kts | 300° |
| 2026-05-06 07:54 | 51.49106 | 5.03650 | 37858 ft | 473 kts | 300° |
| 2026-05-06 07:54 | 51.52518 | 4.94616 | 37865 ft | 473 kts | 299° |
| 2026-05-06 07:55 | 51.55502 | 4.85198 | 37873 ft | 472 kts | 292° |
| 2026-05-06 07:55 | 51.57825 | 4.75336 | 37874 ft | 471 kts | 287° |
| 2026-05-06 07:56 | 51.59663 | 4.65220 | 37872 ft | 470 kts | 285° |
| 2026-05-06 07:56 | 51.61449 | 4.55089 | 37887 ft | 470 kts | 285° |
| 2026-05-06 07:57 | 51.63233 | 4.44952 | 37874 ft | 470 kts | 285° |
| 2026-05-06 07:57 | 51.65010 | 4.34822 | 37872 ft | 470 kts | 285° |
| 2026-05-06 07:58 | 51.66782 | 4.24677 | 37869 ft | 470 kts | 285° |
| 2026-05-06 07:58 | 51.68546 | 4.14524 | 37879 ft | 470 kts | 285° |
| 2026-05-06 07:59 | 51.70288 | 4.04435 | 37879 ft | 469 kts | 284° |
| 2026-05-06 07:59 | 51.72035 | 3.94260 | 37882 ft | 469 kts | 284° |
| 2026-05-06 08:00 | 51.73769 | 3.84103 | 37884 ft | 469 kts | 284° |
| 2026-05-06 08:00 | 51.75499 | 3.73911 | 37890 ft | 469 kts | 284° |
| 2026-05-06 08:01 | 51.77218 | 3.63719 | 37895 ft | 469 kts | 284° |
| 2026-05-06 08:01 | 51.78920 | 3.53566 | 37638 ft | 461 kts | 284° |
| 2026-05-06 08:02 | 51.79753 | 3.48573 | 37390 ft | 457 kts | 284° |
| 2026-05-06 08:02 | 51.80569 | 3.43660 | 37140 ft | 457 kts | 284° |
| 2026-05-06 08:02 | 51.81392 | 3.38688 | 36887 ft | 457 kts | 284° |
| 2026-05-06 08:02 | 51.82214 | 3.33713 | 36641 ft | 456 kts | 283° |
| 2026-05-06 08:03 | 51.82937 | 3.28715 | 36387 ft | 455 kts | 281° |
| 2026-05-06 08:03 | 51.83498 | 3.23653 | 36130 ft | 455 kts | 278° |
| 2026-05-06 08:03 | 51.83891 | 3.18554 | 35877 ft | 457 kts | 275° |
| 2026-05-06 08:03 | 51.84115 | 3.13409 | 35549 ft | 459 kts | 271° |
| 2026-05-06 08:04 | 51.84169 | 3.08224 | 35149 ft | 461 kts | 269° |
| 2026-05-06 08:04 | 51.84051 | 3.03018 | 34637 ft | 463 kts | 265° |
| 2026-05-06 08:04 | 51.83776 | 2.97831 | 34055 ft | 463 kts | 264° |
| 2026-05-06 08:04 | 51.83464 | 2.92671 | 33368 ft | 466 kts | 264° |
| 2026-05-06 08:05 | 51.83140 | 2.87424 | 32672 ft | 468 kts | 264° |
| 2026-05-06 08:05 | 51.82815 | 2.82174 | 32160 ft | 466 kts | 264° |
| 2026-05-06 08:05 | 51.82493 | 2.76981 | 31775 ft | 461 kts | 264° |
| 2026-05-06 08:05 | 51.82173 | 2.71809 | 31285 ft | 458 kts | 264° |
| 2026-05-06 08:06 | 51.81852 | 2.66673 | 30844 ft | 455 kts | 264° |
| 2026-05-06 08:06 | 51.81535 | 2.61610 | 30435 ft | 451 kts | 264° |
| 2026-05-06 08:06 | 51.80926 | 2.51988 | 29681 ft | 443 kts | 263° |
| 2026-05-06 08:07 | 51.80610 | 2.47050 | 29296 ft | 438 kts | 263° |
| 2026-05-06 08:07 | 51.79982 | 2.37321 | 28533 ft | 431 kts | 263° |
| 2026-05-06 08:07 | 51.79668 | 2.32503 | 28151 ft | 427 kts | 263° |
| 2026-05-06 08:08 | 51.79355 | 2.27737 | 27773 ft | 423 kts | 263° |
| 2026-05-06 08:08 | 51.79047 | 2.23069 | 27409 ft | 420 kts | 263° |
| 2026-05-06 08:08 | 51.78736 | 2.18394 | 27036 ft | 416 kts | 263° |
| 2026-05-06 08:08 | 51.78425 | 2.13754 | 26663 ft | 413 kts | 263° |
| 2026-05-06 08:09 | 51.78116 | 2.09148 | 26295 ft | 410 kts | 263° |
| 2026-05-06 08:09 | 51.77807 | 2.04590 | 25995 ft | 404 kts | 263° |
| 2026-05-06 08:09 | 51.77505 | 2.00142 | 25948 ft | 391 kts | 263° |
| 2026-05-06 08:09 | 51.77211 | 1.95849 | 25885 ft | 378 kts | 263° |
| 2026-05-06 08:10 | 51.76924 | 1.91688 | 25817 ft | 366 kts | 263° |
| 2026-05-06 08:10 | 51.76644 | 1.87640 | 25742 ft | 364 kts | 263° |
| 2026-05-06 08:10 | 51.76360 | 1.83568 | 25661 ft | 364 kts | 263° |
| 2026-05-06 08:10 | 51.76074 | 1.79490 | 25572 ft | 363 kts | 263° |
| 2026-05-06 08:11 | 51.75788 | 1.75427 | 25465 ft | 363 kts | 263° |
| 2026-05-06 08:11 | 51.75501 | 1.71380 | 25348 ft | 362 kts | 263° |
| 2026-05-06 08:11 | 51.75213 | 1.67332 | 25236 ft | 362 kts | 263° |
| 2026-05-06 08:11 | 51.74926 | 1.63300 | 25106 ft | 361 kts | 263° |
| 2026-05-06 08:12 | 51.74645 | 1.59269 | 24792 ft | 361 kts | 263° |
| 2026-05-06 08:12 | 51.74391 | 1.55276 | 24390 ft | 359 kts | 263° |
| 2026-05-06 08:12 | 51.74141 | 1.51276 | 24046 ft | 355 kts | 263° |
| 2026-05-06 08:12 | 51.73890 | 1.47309 | 23681 ft | 352 kts | 263° |
| 2026-05-06 08:13 | 51.73642 | 1.43425 | 23299 ft | 350 kts | 263° |
| 2026-05-06 08:13 | 51.73386 | 1.39466 | 22843 ft | 348 kts | 263° |
| 2026-05-06 08:13 | 51.73135 | 1.35621 | 22395 ft | 346 kts | 263° |
| 2026-05-06 08:13 | 51.72882 | 1.31770 | 21889 ft | 342 kts | 263° |
| 2026-05-06 08:14 | 51.72631 | 1.27958 | 21381 ft | 340 kts | 263° |
| 2026-05-06 08:14 | 51.72380 | 1.24181 | 20868 ft | 337 kts | 264° |
| 2026-05-06 08:14 | 51.72130 | 1.20428 | 20306 ft | 336 kts | 264° |
| 2026-05-06 08:14 | 51.71878 | 1.16669 | 19676 ft | 337 kts | 264° |
| 2026-05-06 08:15 | 51.71625 | 1.12905 | 19042 ft | 338 kts | 264° |
| 2026-05-06 08:15 | 51.71369 | 1.09126 | 18417 ft | 338 kts | 264° |
| 2026-05-06 08:15 | 51.71111 | 1.05340 | 17789 ft | 338 kts | 264° |
| 2026-05-06 08:15 | 51.70855 | 1.01597 | 17166 ft | 339 kts | 264° |
| 2026-05-06 08:16 | 51.70596 | 0.97833 | 16539 ft | 339 kts | 264° |
| 2026-05-06 08:16 | 51.70336 | 0.94058 | 15907 ft | 338 kts | 264° |
| 2026-05-06 08:16 | 51.70076 | 0.90282 | 15281 ft | 338 kts | 264° |
| 2026-05-06 08:16 | 51.69815 | 0.86511 | 14651 ft | 337 kts | 264° |
| 2026-05-06 08:17 | 51.69551 | 0.82738 | 14043 ft | 336 kts | 264° |
| 2026-05-06 08:17 | 51.69287 | 0.78983 | 13532 ft | 331 kts | 264° |
| 2026-05-06 08:17 | 51.69027 | 0.75315 | 13049 ft | 326 kts | 264° |
| 2026-05-06 08:17 | 51.68771 | 0.71714 | 12608 ft | 316 kts | 264° |
| 2026-05-06 08:18 | 51.68524 | 0.68249 | 12200 ft | 304 kts | 264° |
| 2026-05-06 08:18 | 51.68289 | 0.64948 | 11798 ft | 295 kts | 264° |
| 2026-05-06 08:18 | 51.68054 | 0.61669 | 11391 ft | 292 kts | 264° |
| 2026-05-06 08:18 | 51.67818 | 0.58421 | 10884 ft | 290 kts | 264° |
| 2026-05-06 08:19 | 51.67581 | 0.55197 | 10426 ft | 289 kts | 264° |
| 2026-05-06 08:19 | 51.67343 | 0.51980 | 9975 ft | 288 kts | 264° |
| 2026-05-06 08:19 | 51.67103 | 0.48781 | 9548 ft | 286 kts | 264° |
| 2026-05-06 08:19 | 51.66861 | 0.45602 | 9119 ft | 284 kts | 264° |
| 2026-05-06 08:20 | 51.66616 | 0.42438 | 8698 ft | 282 kts | 264° |
| 2026-05-06 08:20 | 51.66372 | 0.39304 | 8278 ft | 281 kts | 264° |
| 2026-05-06 08:20 | 51.66129 | 0.36198 | 8022 ft | 276 kts | 264° |
| 2026-05-06 08:20 | 51.65897 | 0.33229 | 7978 ft | 263 kts | 264° |
| 2026-05-06 08:21 | 51.65671 | 0.30383 | 7970 ft | 249 kts | 264° |
| 2026-05-06 08:21 | 51.65450 | 0.27617 | 7985 ft | 248 kts | 264° |
| 2026-05-06 08:21 | 51.65227 | 0.24843 | 7931 ft | 244 kts | 264° |
| 2026-05-06 08:21 | 51.65007 | 0.22110 | 7595 ft | 245 kts | 264° |
| 2026-05-06 08:22 | 51.64787 | 0.19384 | 7266 ft | 245 kts | 264° |
| 2026-05-06 08:22 | 51.64568 | 0.16663 | 7022 ft | 242 kts | 264° |
| 2026-05-06 08:22 | 51.64350 | 0.13962 | 7000 ft | 244 kts | 264° |
| 2026-05-06 08:22 | 51.64161 | 0.11236 | 6997 ft | 244 kts | 265° |
| 2026-05-06 08:23 | 51.63996 | 0.08539 | 6991 ft | 244 kts | 266° |
| 2026-05-06 08:23 | 51.63834 | 0.05803 | 6995 ft | 244 kts | 266° |
| 2026-05-06 08:23 | 51.63672 | 0.03074 | 6996 ft | 244 kts | 266° |
| 2026-05-06 08:23 | 51.63526 | 0.00341 | 6991 ft | 244 kts | 266° |
| 2026-05-06 08:24 | 51.63392 | -0.02380 | 6992 ft | 244 kts | 267° |
| 2026-05-06 08:24 | 51.63258 | -0.05110 | 6993 ft | 243 kts | 267° |
| 2026-05-06 08:24 | 51.63128 | -0.07799 | 6992 ft | 242 kts | 267° |
| 2026-05-06 08:24 | 51.62998 | -0.10508 | 6993 ft | 242 kts | 267° |
| 2026-05-06 08:25 | 51.62868 | -0.13210 | 6995 ft | 242 kts | 267° |
| 2026-05-06 08:25 | 51.62738 | -0.15910 | 6996 ft | 241 kts | 267° |
| 2026-05-06 08:25 | 51.62617 | -0.18611 | 6992 ft | 241 kts | 268° |
| 2026-05-06 08:25 | 51.62511 | -0.21315 | 6993 ft | 241 kts | 268° |
| 2026-05-06 08:26 | 51.62409 | -0.24023 | 6995 ft | 241 kts | 268° |
| 2026-05-06 08:26 | 51.62306 | -0.26726 | 6994 ft | 241 kts | 268° |
| 2026-05-06 08:26 | 51.62201 | -0.29431 | 6998 ft | 241 kts | 268° |
| 2026-05-06 08:26 | 51.62113 | -0.32099 | 6996 ft | 241 kts | 269° |
| 2026-05-06 08:27 | 51.62034 | -0.34802 | 6998 ft | 241 kts | 269° |
| 2026-05-06 08:27 | 51.61957 | -0.37506 | 6998 ft | 241 kts | 269° |
| 2026-05-06 08:27 | 51.61881 | -0.40207 | 6991 ft | 241 kts | 269° |
| 2026-05-06 08:27 | 51.61796 | -0.42912 | 6992 ft | 241 kts | 268° |
| 2026-05-06 08:28 | 51.61695 | -0.45616 | 6992 ft | 241 kts | 268° |
| 2026-05-06 08:28 | 51.61589 | -0.48318 | 6989 ft | 241 kts | 268° |
| 2026-05-06 08:28 | 51.61483 | -0.51010 | 6995 ft | 240 kts | 268° |
| 2026-05-06 08:28 | 51.61375 | -0.53682 | 6766 ft | 237 kts | 267° |
| 2026-05-06 08:29 | 51.61249 | -0.56343 | 6423 ft | 239 kts | 267° |
| 2026-05-06 08:29 | 51.61114 | -0.59003 | 6149 ft | 237 kts | 266° |
| 2026-05-06 08:29 | 51.60979 | -0.61629 | 5901 ft | 237 kts | 266° |
| 2026-05-06 08:29 | 51.60839 | -0.64306 | 5644 ft | 237 kts | 266° |
| 2026-05-06 08:30 | 51.60700 | -0.66954 | 5386 ft | 236 kts | 266° |
| 2026-05-06 08:30 | 51.60563 | -0.69553 | 5122 ft | 237 kts | 266° |
| 2026-05-06 08:30 | 51.60420 | -0.72227 | 4777 ft | 239 kts | 266° |
| 2026-05-06 08:30 | 51.60277 | -0.74880 | 4521 ft | 237 kts | 266° |
| 2026-05-06 08:31 | 51.60134 | -0.77522 | 4261 ft | 235 kts | 266° |
| 2026-05-06 08:31 | 51.60038 | -0.79257 | 4100 ft | 234 kts | 266° |
| 2026-05-06 08:31 | 51.59843 | -0.82726 | 3768 ft | 233 kts | 266° |
| 2026-05-06 08:31 | 51.59745 | -0.84449 | 3578 ft | 231 kts | 266° |
| 2026-05-06 08:32 | 51.59598 | -0.87012 | 3365 ft | 226 kts | 266° |
| 2026-05-06 08:32 | 51.59455 | -0.89487 | 3197 ft | 218 kts | 266° |
| 2026-05-06 08:32 | 51.58766 | -0.92432 | 3022 ft | 215 kts | 223° |
| 2026-05-06 08:32 | 51.57937 | -0.93351 | 3038 ft | 216 kts | 199° |
| 2026-05-06 08:33 | 51.56486 | -0.93582 | 3042 ft | 213 kts | 163° |
| 2026-05-06 08:33 | 51.55180 | -0.92534 | 3049 ft | 210 kts | 141° |
| 2026-05-06 08:33 | 51.54040 | -0.91056 | 3043 ft | 210 kts | 136° |
| 2026-05-06 08:33 | 51.52944 | -0.89510 | 3038 ft | 209 kts | 136° |
| 2026-05-06 08:34 | 51.51934 | -0.87838 | 3063 ft | 208 kts | 126° |
| 2026-05-06 08:34 | 51.50300 | -0.84013 | 3014 ft | 207 kts | 121° |
| 2026-05-06 08:34 | 51.49516 | -0.82093 | 3038 ft | 207 kts | 121° |
| 2026-05-06 08:35 | 51.48727 | -0.80157 | 3012 ft | 207 kts | 121° |
| 2026-05-06 08:35 | 51.48033 | -0.78139 | 3017 ft | 203 kts | 109° |
| 2026-05-06 08:35 | 51.47700 | -0.76022 | 2992 ft | 189 kts | 95° |
| 2026-05-06 08:35 | 51.47624 | -0.73904 | 3006 ft | 191 kts | 87° |
| 2026-05-06 08:36 | 51.47660 | -0.71765 | 2893 ft | 191 kts | 86° |
| 2026-05-06 08:36 | 51.47698 | -0.69678 | 2646 ft | 187 kts | 86° |
| 2026-05-06 08:36 | 51.47717 | -0.67605 | 2396 ft | 182 kts | 88° |
| 2026-05-06 08:36 | 51.47722 | -0.65582 | 2154 ft | 180 kts | 88° |
| 2026-05-06 08:37 | 51.47722 | -0.63630 | 1896 ft | 168 kts | 88° |
| 2026-05-06 08:37 | 51.47721 | -0.61817 | 1694 ft | 157 kts | 88° |
| 2026-05-06 08:37 | 51.47723 | -0.60104 | 1503 ft | 156 kts | 88° |
| 2026-05-06 08:37 | 51.47726 | -0.58342 | 1298 ft | 156 kts | 88° |
| 2026-05-06 08:38 | 51.47730 | -0.56600 | 1105 ft | 155 kts | 89° |
| 2026-05-06 08:38 | 51.47733 | -0.54867 | 894 ft | 155 kts | 89° |
| 2026-05-06 08:38 | 51.47727 | -0.53126 | 673 ft | 155 kts | 89° |
| 2026-05-06 08:38 | 51.47732 | -0.51397 | 480 ft | 154 kts | 87° |
| 2026-05-06 08:39 | 51.47749 | -0.49676 | 272 ft | 154 kts | 89° |
| 2026-05-06 08:39 | 51.47750 | -0.47957 | 105 ft | 152 kts | 89° |
| 2026-05-06 08:39 | 51.47757 | -0.46482 | 100 ft | 106 kts | 90° |
| 2026-05-06 08:39 | 51.47761 | -0.45588 | 93 ft | 40 kts | 89° |
| 2026-05-06 08:40 | 51.47762 | -0.45221 | 96 ft | 28 kts | 90° |
| 2026-05-06 08:40 | 51.47762 | -0.44958 | 97 ft | 20 kts | 90° |
| 2026-05-06 08:40 | 51.47762 | -0.44777 | 100 ft | 12 kts | 91° |
| 2026-05-06 08:40 | 51.47759 | -0.44678 | 99 ft | 5 kts | 96° |
| 2026-05-06 08:41 | 51.47756 | -0.44646 | 97 ft | 4 kts | 98° |
| 2026-05-06 08:41 | 51.47716 | -0.44441 | 98 ft | 18 kts | 118° |
| 2026-05-06 08:41 | 51.47672 | -0.44299 | 95 ft | 11 kts | 116° |
| 2026-05-06 08:41 | 51.47615 | -0.44219 | 94 ft | 12 kts | 141° |
| 2026-05-06 08:42 | 51.47588 | -0.44125 | 97 ft | 9 kts | 109° |
| 2026-05-06 08:42 | 51.47527 | -0.44067 | 95 ft | 12 kts | 172° |
| 2026-05-06 08:42 | 51.47431 | -0.44060 | 98 ft | 13 kts | 179° |
| 2026-05-06 08:43 | 51.47254 | -0.44058 | 94 ft | 8 kts | 180° |
| 2026-05-06 08:43 | 51.47187 | -0.44058 | 94 ft | 11 kts | 180° |
| 2026-05-06 08:43 | 51.47099 | -0.44057 | 94 ft | 12 kts | 180° |
| 2026-05-06 08:43 | 51.47015 | -0.44057 | 96 ft | 13 kts | 180° |
| 2026-05-06 08:44 | 51.46933 | -0.44056 | 98 ft | 9 kts | 180° |
| 2026-05-06 08:44 | 51.46857 | -0.44056 | 98 ft | 13 kts | 180° |
| 2026-05-06 08:44 | 51.46766 | -0.44055 | 98 ft | 13 kts | 180° |
| 2026-05-06 08:44 | 51.46684 | -0.44054 | 98 ft | 10 kts | 179° |
| 2026-05-06 08:45 | 51.46644 | -0.44054 | 98 ft | 0 kts | 179° |
| 2026-05-06 08:46 | 51.46641 | -0.44054 | 94 ft | 1 kts | 179° |
| 2026-05-06 08:46 | 51.46639 | -0.44054 | 94 ft | 0 kts | 179° |
| 2026-05-06 08:46 | 51.46580 | -0.44053 | 98 ft | 10 kts | 179° |
| 2026-05-06 08:47 | 51.46500 | -0.44054 | 96 ft | 13 kts | 185° |
| 2026-05-06 08:47 | 51.46413 | -0.44109 | 97 ft | 13 kts | 207° |
| 2026-05-06 08:47 | 51.46362 | -0.44155 | 96 ft | 9 kts | 216° |
| 2026-05-06 08:47 | 51.46335 | -0.44255 | 97 ft | 12 kts | 265° |
| 2026-05-06 08:48 | 51.46329 | -0.44384 | 95 ft | 13 kts | 266° |
| 2026-05-06 08:48 | 51.46326 | -0.44521 | 98 ft | 12 kts | 269° |
| 2026-05-06 08:48 | 51.46320 | -0.44619 | 96 ft | 10 kts | 248° |
| 2026-05-06 08:48 | 51.46279 | -0.44703 | 97 ft | 9 kts | 221° |
| 2026-05-06 08:49 | 51.46234 | -0.44766 | 96 ft | 7 kts | 221° |
| 2026-05-06 08:49 | 51.46203 | -0.44809 | 94 ft | 3 kts | 216° |
| 2026-05-06 08:49 | 51.46184 | -0.44812 | 98 ft | 3 kts | 161° |
| 2026-05-06 08:49 | 51.46159 | -0.44779 | 97 ft | 6 kts | 132° |
| 2026-05-06 08:50 | 51.46137 | -0.44740 | 94 ft | 3 kts | 131° |
| 2026-05-06 08:50 | 51.46127 | -0.44722 | 98 ft | 0 kts | 131° |
| 2026-05-06 08:50 | 51.46126 | -0.44722 | 94 ft | 0 kts | 131° |
| 2026-05-06 08:51 | 51.46126 | -0.44721 | 96 ft | 0 kts | 131° |